createdAt,value
2023-04-16T00:00:14.184Z,96693.22
2023-04-16T00:04:06.401Z,96690.16
2023-04-16T00:06:34.180Z,96678.03
2023-04-16T00:12:31.616Z,96681.63
2023-04-16T00:15:08.150Z,96676.69
2023-04-16T00:24:45.833Z,96673.34
2023-04-16T00:27:14.241Z,96667.28
2023-04-16T00:29:48.964Z,96673.63
2023-04-16T00:32:30.639Z,96681.13
2023-04-16T00:35:01.248Z,96674.75
2023-04-16T00:38:17.272Z,96673.78
2023-04-16T00:41:49.675Z,96669.50
2023-04-16T00:48:48.950Z,96674.75
2023-04-16T00:51:16.645Z,96673.38
2023-04-16T00:53:45.417Z,96666.31
2023-04-16T00:56:20.729Z,96669.63
2023-04-16T00:58:59.438Z,96668.53
2023-04-16T01:10:30.302Z,96667.53
2023-04-16T01:13:59.741Z,96663.44
2023-04-16T01:25:06.869Z,96672.53
2023-04-16T01:27:56.456Z,96679.69
2023-04-16T02:00:23.257Z,96692.91
2023-04-16T02:02:54.362Z,96699.38
2023-04-16T02:05:35.505Z,96695.38
2023-04-16T02:08:11.406Z,96686.00
2023-04-16T02:10:53.793Z,96692.34
2023-04-16T02:13:34.751Z,96696.75
2023-04-16T02:29:02.219Z,96687.06
2023-04-16T02:53:18.815Z,96683.13
2023-04-16T03:16:58.037Z,96680.13
2023-04-16T03:19:30.574Z,96686.19
2023-04-16T03:21:57.362Z,96689.63
2023-04-16T03:24:24.174Z,96686.75
2023-04-16T03:26:58.061Z,96693.38
2023-04-16T03:29:27.266Z,96696.41
2023-04-16T03:35:43.736Z,96690.25
2023-04-16T03:38:22.615Z,96690.91
2023-04-16T03:40:49.681Z,96692.25
2023-04-16T03:43:19.460Z,96690.34
2023-04-16T03:45:47.060Z,96691.72
2023-04-16T03:48:14.165Z,96700.56
2023-04-16T03:50:41.854Z,96694.09
2023-04-16T03:53:08.737Z,96701.66
2023-04-16T03:55:36.438Z,96699.75
2023-04-16T03:58:05.157Z,96693.38
2023-04-16T04:00:32.567Z,96693.66
2023-04-16T04:02:59.691Z,96698.75
2023-04-16T04:05:29.802Z,96695.59
2023-04-16T04:07:56.873Z,96694.25
2023-04-16T04:10:24.051Z,96709.97
2023-04-16T04:13:01.157Z,96708.31
2023-04-16T04:15:28.217Z,96695.63
2023-04-16T04:18:04.512Z,96706.25
2023-04-16T04:20:52.779Z,96700.91
2023-04-16T04:23:28.352Z,96705.59
2023-04-16T04:29:12.688Z,96690.03
2023-04-16T04:35:50.952Z,96698.69
2023-04-16T04:41:32.216Z,96704.78
2023-04-16T04:43:59.990Z,96698.59
2023-04-16T04:46:30.106Z,96700.38
2023-04-16T04:49:03.869Z,96707.84
2023-04-16T04:51:36.067Z,96700.38
2023-04-16T04:54:02.757Z,96700.13
2023-04-16T04:59:53.641Z,96706.22
2023-04-16T05:02:30.930Z,96697.38
2023-04-16T05:05:30.700Z,96700.13
2023-04-16T05:10:55.687Z,96703.69
2023-04-16T05:13:34.415Z,96699.25
2023-04-16T05:16:13.274Z,96698.25
2023-04-16T05:18:56.871Z,96703.34
2023-04-16T05:21:41.987Z,96700.81
2023-04-16T05:24:36.652Z,96700.06
2023-04-16T05:27:19.144Z,96696.97
2023-04-16T05:29:46.744Z,96702.00
2023-04-16T05:32:14.475Z,96700.63
2023-04-16T05:34:41.305Z,96702.31
2023-04-16T05:37:11.672Z,96710.34
2023-04-16T05:42:51.069Z,96705.94
2023-04-16T05:45:57.300Z,96696.66
2023-04-16T05:49:23.531Z,96704.22
2023-04-16T05:52:07.106Z,96700.16
2023-04-16T05:55:00.561Z,96687.72
2023-04-16T05:57:29.187Z,96685.50
2023-04-16T06:03:21.934Z,96684.16
2023-04-16T06:08:38.366Z,96681.75
2023-04-16T06:14:35.295Z,96690.00
2023-04-16T06:18:03.560Z,96682.09
2023-04-16T06:20:19.294Z,96674.16
2023-04-16T06:25:56.536Z,96680.72
2023-04-16T06:31:13.826Z,96679.94
2023-04-16T06:44:54.206Z,96697.28
2023-04-16T06:47:21.261Z,96690.94
2023-04-16T06:49:47.945Z,96704.84
2023-04-16T06:52:47.505Z,96705.31
2023-04-16T06:55:14.242Z,96705.78
2023-04-16T06:57:41.328Z,96714.69
2023-04-16T07:00:21.414Z,96708.97
2023-04-16T07:03:38.275Z,96716.38
2023-04-16T07:05:39.420Z,96726.75
2023-04-16T07:08:14.238Z,96716.06
2023-04-16T07:10:41.054Z,96716.31
2023-04-16T07:16:37.938Z,96705.84
2023-04-16T07:19:04.908Z,96707.06
2023-04-16T07:24:45.597Z,96698.53
2023-04-16T07:27:15.383Z,96700.56
2023-04-16T07:33:30.101Z,96694.75
2023-04-16T07:35:56.894Z,96683.84
2023-04-16T07:38:29.493Z,96690.47
2023-04-16T07:41:41.355Z,96679.03
2023-04-16T07:44:25.997Z,96681.75
2023-04-16T07:47:07.952Z,96684.00
2023-04-16T07:49:46.557Z,96683.53
2023-04-16T07:52:32.557Z,96674.59
2023-04-16T07:54:59.532Z,96674.00
2023-04-16T07:57:26.770Z,96668.06
2023-04-16T07:59:53.608Z,96676.72
2023-04-16T08:02:20.416Z,96681.00
2023-04-16T08:04:48.090Z,96682.22
2023-04-16T08:07:14.907Z,96680.56
2023-04-16T08:10:03.736Z,96679.06
2023-04-16T08:12:31.202Z,96676.91
2023-04-16T08:14:57.861Z,96676.91
2023-04-16T08:20:30.561Z,96674.59
2023-04-16T08:26:01.482Z,96679.41
2023-04-16T08:28:28.176Z,96672.47
2023-04-16T08:30:55.020Z,96662.63
2023-04-16T08:33:57.274Z,96669.19
2023-04-16T08:36:24.572Z,96669.19
2023-04-16T08:38:58.537Z,96669.97
2023-04-16T08:45:25.137Z,96670.75
2023-04-16T08:48:41.989Z,96681.00
2023-04-16T09:01:42.081Z,96662.69
2023-04-16T09:04:29.592Z,96675.84
2023-04-16T09:06:59.704Z,96673.59
2023-04-16T09:09:26.978Z,96669.31
2023-04-16T09:12:14.321Z,96669.31
2023-04-16T09:15:28.107Z,96671.53
2023-04-16T09:17:56.848Z,96671.84
2023-04-16T09:20:23.955Z,96668.16
2023-04-16T09:29:01.478Z,96667.09
2023-04-16T09:37:20.848Z,96673.66
2023-04-16T09:43:35.517Z,96652.81
2023-04-16T09:43:38.242Z,96675.72
2023-04-16T09:52:40.693Z,96648.59
2023-04-16T09:55:30.844Z,96657.56
2023-04-16T09:58:01.707Z,96648.53
2023-04-16T10:00:31.185Z,96657.75
2023-04-16T10:03:45.913Z,96652.94
2023-04-16T10:06:17.343Z,96654.25
2023-04-16T10:08:52.111Z,96657.50
2023-04-16T10:11:20.306Z,96653.00
2023-04-16T10:13:47.596Z,96644.22
2023-04-16T10:16:17.653Z,96655.50
2023-04-16T10:18:46.498Z,96655.09
2023-04-16T10:21:21.858Z,96661.66
2023-04-16T10:23:49.836Z,96652.63
2023-04-16T10:26:26.929Z,96648.56
2023-04-16T10:28:58.117Z,96646.47
2023-04-16T10:31:26.582Z,96641.38
2023-04-16T10:33:53.881Z,96640.19
2023-04-16T10:36:28.283Z,96631.19
2023-04-16T10:42:32.725Z,96615.84
2023-04-16T10:45:00.865Z,96621.78
2023-04-16T10:47:29.788Z,96620.31
2023-04-16T10:50:01.841Z,96618.38
2023-04-16T10:52:29.665Z,96617.81
2023-04-16T10:55:01.427Z,96617.38
2023-04-16T10:57:32.604Z,96612.03
2023-04-16T10:59:59.545Z,96602.81
2023-04-16T11:02:30.307Z,96618.47
2023-04-16T11:04:58.026Z,96604.78
2023-04-16T11:07:39.416Z,96603.31
2023-04-16T11:10:08.195Z,96601.91
2023-04-16T11:12:39.775Z,96597.81
2023-04-16T11:15:08.375Z,96601.47
2023-04-16T11:17:48.739Z,96598.63
2023-04-16T11:20:25.009Z,96597.41
2023-04-16T11:22:54.005Z,96590.41
2023-04-16T11:25:24.964Z,96590.41
2023-04-16T11:27:52.665Z,96590.81
2023-04-16T11:30:40.761Z,96586.28
2023-04-16T11:33:18.831Z,96588.13
2023-04-16T11:39:03.781Z,96572.78
2023-04-16T11:41:57.963Z,96569.25
2023-04-16T11:44:28.037Z,96572.38
2023-04-16T11:53:34.653Z,96564.34
2023-04-16T11:56:14.464Z,96561.91
2023-04-16T11:59:27.755Z,96550.00
2023-04-16T12:01:58.497Z,96544.88
2023-04-16T12:10:56.282Z,96538.94
2023-04-16T12:13:59.078Z,96526.41
2023-04-16T12:17:17.361Z,96526.41
2023-04-16T12:19:57.930Z,96521.63
2023-04-16T12:22:34.651Z,96511.69
2023-04-16T12:25:07.769Z,96514.59
2023-04-16T12:31:43.081Z,96503.50
2023-04-16T12:36:03.034Z,96508.00
2023-04-16T12:38:05.425Z,96504.44
2023-04-16T12:40:52.644Z,96489.22
2023-04-16T12:43:22.824Z,96484.25
2023-04-16T12:52:47.109Z,96479.66
2023-04-16T12:55:14.683Z,96484.47
2023-04-16T12:57:41.538Z,96480.13
2023-04-16T13:00:10.704Z,96471.28
2023-04-16T13:03:41.356Z,96472.38
2023-04-16T13:09:15.035Z,96461.59
2023-04-16T13:14:52.350Z,96445.88
2023-04-16T13:17:19.392Z,96446.16
2023-04-16T13:19:49.020Z,96445.19
2023-04-16T13:22:19.427Z,96426.09
2023-04-16T13:27:32.264Z,96424.91
2023-04-16T13:30:12.113Z,96419.22
2023-04-16T13:32:44.488Z,96416.16
2023-04-16T13:35:11.934Z,96413.03
2023-04-16T13:38:29.603Z,96420.34
2023-04-16T13:40:56.464Z,96424.38
2023-04-16T13:43:23.514Z,96412.50
2023-04-16T13:46:31.827Z,96410.34
2023-04-16T13:49:34.990Z,96418.41
2023-04-16T13:52:02.521Z,96419.34
2023-04-16T13:54:39.294Z,96426.69
2023-04-16T13:57:10.060Z,96423.16
2023-04-16T13:59:37.476Z,96429.66
2023-04-16T14:02:11.798Z,96444.97
2023-04-16T14:04:47.014Z,96442.84
2023-04-16T14:07:24.551Z,96447.03
2023-04-16T14:09:51.134Z,96450.25
2023-04-16T14:13:25.742Z,96447.78
2023-04-16T14:20:14.365Z,96457.00
2023-04-16T14:26:23.801Z,96472.91
2023-04-16T14:29:53.640Z,96481.94
2023-04-16T14:32:56.462Z,96474.00
2023-04-16T14:35:23.753Z,96472.34
2023-04-16T14:40:46.084Z,96481.16
2023-04-16T14:43:19.031Z,96471.06
2023-04-16T14:45:46.493Z,96478.25
2023-04-16T14:48:13.828Z,96479.03
2023-04-16T14:50:44.310Z,96478.16
2023-04-16T14:53:21.309Z,96492.13
2023-04-16T14:55:48.130Z,96496.69
2023-04-16T14:58:17.666Z,96493.84
2023-04-16T15:00:47.734Z,96502.00
2023-04-16T15:03:24.098Z,96490.44
2023-04-16T15:06:01.753Z,96499.44
2023-04-16T15:08:28.547Z,96491.66
2023-04-16T15:10:58.334Z,96485.75
2023-04-16T15:13:25.535Z,96482.28
2023-04-16T15:15:59.579Z,96484.38
2023-04-16T15:18:30.181Z,96477.94
2023-04-16T15:20:57.127Z,96484.94
2023-04-16T15:23:24.607Z,96490.44
2023-04-16T15:25:52.216Z,96484.25
2023-04-16T15:28:22.474Z,96492.03
2023-04-16T15:30:53.231Z,96491.16
2023-04-16T15:33:32.708Z,96494.81
2023-04-16T15:36:19.381Z,96495.53
2023-04-16T15:39:05.132Z,96498.16
2023-04-16T15:41:33.059Z,96499.00
2023-04-16T15:44:03.448Z,96502.34
2023-04-16T15:46:30.897Z,96508.78
2023-04-16T15:49:26.337Z,96521.50
2023-04-16T15:51:54.190Z,96522.91
2023-04-16T15:54:21.856Z,96521.00
2023-04-16T15:56:49.243Z,96519.03
2023-04-16T15:59:17.107Z,96510.84
2023-04-16T16:01:55.822Z,96514.53
2023-04-16T16:04:24.108Z,96504.28
2023-04-16T16:07:03.348Z,96505.53
2023-04-16T16:09:43.284Z,96507.19
2023-04-16T16:12:10.397Z,96506.16
2023-04-16T16:14:40.767Z,96517.38
2023-04-16T16:17:21.315Z,96525.97
2023-04-16T16:19:50.855Z,96525.91
2023-04-16T16:22:20.634Z,96516.06
2023-04-16T16:25:00.927Z,96528.72
2023-04-16T16:27:28.493Z,96535.69
2023-04-16T16:29:55.492Z,96528.06
2023-04-16T16:32:22.470Z,96535.19
2023-04-16T16:34:49.314Z,96544.13
2023-04-16T16:37:16.613Z,96537.97
2023-04-16T16:39:46.338Z,96541.66
2023-04-16T16:42:14.138Z,96546.31
2023-04-16T16:44:41.344Z,96547.31
2023-04-16T16:47:08.183Z,96544.16
2023-04-16T16:49:38.052Z,96559.72
2023-04-16T16:52:05.160Z,96552.25
2023-04-16T16:54:31.804Z,96566.53
2023-04-16T16:56:58.914Z,96563.66
2023-04-16T16:59:29.730Z,96572.38
2023-04-16T17:01:56.770Z,96568.63
2023-04-16T17:04:25.386Z,96574.75
2023-04-16T17:07:32.837Z,96584.34
2023-04-16T17:10:21.355Z,96579.91
2023-04-16T17:13:06.960Z,96583.03
2023-04-16T17:15:34.815Z,96578.59
2023-04-16T17:18:01.591Z,96582.00
2023-04-16T17:20:28.532Z,96591.16
2023-04-16T17:22:59.489Z,96600.25
2023-04-16T17:28:33.867Z,96601.88
2023-04-16T17:31:38.161Z,96602.44
2023-04-16T17:34:08.764Z,96613.06
2023-04-16T17:36:50.363Z,96609.75
2023-04-16T17:39:27.545Z,96623.50
2023-04-16T17:42:35.451Z,96624.50
2023-04-16T17:45:09.590Z,96627.72
2023-04-16T17:47:42.712Z,96638.03
2023-04-16T17:50:40.139Z,96639.31
2023-04-16T17:56:07.348Z,96638.50
2023-04-16T17:59:02.097Z,96648.19
2023-04-16T18:01:31.349Z,96647.63
2023-04-16T18:04:27.878Z,96655.28
2023-04-16T18:07:14.129Z,96664.59
2023-04-16T18:09:53.946Z,96671.81
2023-04-16T18:12:36.463Z,96662.75
2023-04-16T18:15:07.440Z,96663.44
2023-04-16T18:17:34.885Z,96672.41
2023-04-16T18:20:12.853Z,96667.81
2023-04-16T18:22:46.139Z,96674.31
2023-04-16T18:25:29.943Z,96666.41
2023-04-16T18:28:01.955Z,96673.22
2023-04-16T18:30:40.495Z,96671.78
2023-04-16T18:33:37.341Z,96674.50
2023-04-16T18:36:05.313Z,96673.06
2023-04-16T18:41:08.359Z,96681.75
2023-04-16T18:43:56.734Z,96673.16
2023-04-16T18:46:25.829Z,96676.19
2023-04-16T18:48:55.096Z,96670.31
2023-04-16T18:51:23.389Z,96664.06
2023-04-16T18:53:51.540Z,96670.69
2023-04-16T18:56:19.213Z,96673.38
2023-04-16T18:58:50.362Z,96671.78
2023-04-16T19:01:20.924Z,96663.53
2023-04-16T19:03:54.050Z,96672.63
2023-04-16T19:09:50.509Z,96667.06
2023-04-16T19:13:04.947Z,96667.56
2023-04-16T19:15:53.011Z,96674.84
2023-04-16T19:18:37.983Z,96677.31
2023-04-16T19:21:24.239Z,96671.53
2023-04-16T19:26:55.478Z,96666.22
2023-04-16T19:32:26.108Z,96678.41
2023-04-16T19:36:03.224Z,96674.59
2023-04-16T19:42:12.516Z,96668.44
2023-04-16T19:50:59.336Z,96668.69
2023-04-16T19:57:51.386Z,96678.25
2023-04-16T20:04:56.429Z,96668.63
2023-04-16T20:05:00.773Z,96670.72
2023-04-16T20:08:36.209Z,96672.00
2023-04-16T20:11:40.552Z,96666.06
2023-04-16T20:22:49.737Z,96664.16
2023-04-16T20:25:59.281Z,96667.59
2023-04-16T20:29:15.981Z,96662.44
2023-04-16T20:32:28.514Z,96666.38
2023-04-16T20:35:12.471Z,96667.47
2023-04-16T20:41:26.556Z,96659.03
2023-04-16T20:44:07.026Z,96656.19
2023-04-16T20:47:01.843Z,96657.16
2023-04-16T20:56:01.394Z,96669.41
2023-04-16T21:02:29.629Z,96666.38
2023-04-16T21:04:48.363Z,96658.81
2023-04-16T21:11:09.300Z,96663.53
2023-04-16T21:14:14.807Z,96661.03
2023-04-16T21:16:49.469Z,96665.94
2023-04-16T21:22:44.250Z,96660.25
2023-04-16T21:25:54.119Z,96657.25
2023-04-16T21:28:18.945Z,96660.88
2023-04-16T21:30:56.208Z,96662.59
2023-04-16T21:33:27.539Z,96657.84
2023-04-16T21:35:58.886Z,96651.72
2023-04-16T21:38:36.167Z,96654.94
2023-04-16T21:43:49.456Z,96661.41
2023-04-16T21:49:16.300Z,96665.22
2023-04-16T21:55:00.404Z,96664.94
2023-04-16T21:57:38.341Z,96654.16
2023-04-16T22:00:26.713Z,96650.38
2023-04-16T22:03:31.527Z,96649.34
2023-04-16T22:06:11.236Z,96653.38
2023-04-16T22:08:43.294Z,96651.03
2023-04-16T22:11:31.817Z,96646.50
2023-04-16T22:14:20.855Z,96644.28
2023-04-16T22:17:11.569Z,96645.78
2023-04-16T22:19:57.806Z,96644.28
2023-04-16T22:22:31.787Z,96636.31
2023-04-16T22:25:16.301Z,96632.63
2023-04-16T22:27:44.625Z,96633.88
2023-04-16T22:30:28.261Z,96635.53
2023-04-16T22:33:00.375Z,96631.25
2023-04-16T22:35:41.262Z,96633.03
2023-04-16T22:41:55.772Z,96634.16
2023-04-16T22:48:00.378Z,96628.38
2023-04-16T22:50:34.029Z,96628.94
2023-04-16T22:56:00.279Z,96645.22
2023-04-16T22:58:31.672Z,96638.84
2023-04-16T23:01:06.452Z,96646.56
2023-04-16T23:03:41.035Z,96643.44
2023-04-16T23:06:08.161Z,96642.72
2023-04-16T23:08:51.174Z,96650.31
2023-04-16T23:11:20.816Z,96641.84
2023-04-16T23:13:55.875Z,96623.91
2023-04-16T23:16:23.372Z,96621.19
2023-04-16T23:18:50.771Z,96627.25
2023-04-16T23:21:21.081Z,96625.72
2023-04-16T23:23:53.819Z,96619.94
2023-04-16T23:26:27.704Z,96613.97
2023-04-16T23:28:58.561Z,96628.84
2023-04-16T23:31:31.546Z,96619.34
2023-04-16T23:34:03.457Z,96623.66
2023-04-16T23:36:34.798Z,96620.72
2023-04-16T23:40:00.328Z,96617.31
2023-04-16T23:42:28.466Z,96626.94
2023-04-16T23:45:17.840Z,96618.69
2023-04-16T23:48:01.120Z,96616.31
2023-04-16T23:50:29.209Z,96616.31
2023-04-16T23:53:14.739Z,96611.03
2023-04-16T23:55:58.107Z,96615.00
2023-04-16T23:58:48.594Z,96606.47
